.
WxDataArchive / Data Records for 2014-01-09
2014-01-08 January 2014 2014-01-10

Data Records for Thursday, 09 January 2014

Time	Temp	Chill	HIndex	Humid	Dewpt	 Wind 	HiWind	WindDir	Rain 	Barom 
-----	----	-----	------	-----	-----	------	------	-------	-----	----- 
00:00	12.4	12.4	12.4	76	6.3	0	0	---	0.00	30.546 
00:05	12.1	12.1	12.1	76	6.0	0	0	---	0.00	30.546 
00:10	11.9	11.9	11.9	77	6.1	0	0	---	0.00	30.546 
00:15	11.6	11.6	11.6	77	5.8	0	0	---	0.00	30.544 
00:20	11.2	11.2	11.2	77	5.4	0	0	---	0.00	30.544 
00:25	10.9	10.9	10.9	77	5.1	0	0	---	0.00	30.544 
00:30	10.7	10.7	10.7	77	4.9	0	0	---	0.00	30.546 
00:35	10.4	10.4	10.4	77	4.6	0	0	---	0.00	30.546 
00:40	10.0	10.0	10.0	78	4.5	0	0	---	0.00	30.546 
00:45	9.9	9.9	9.9	78	4.4	0	0	---	0.00	30.541 
00:50	9.5	9.5	9.5	78	4.0	0	0	---	0.00	30.541 
00:55	9.3	9.3	9.3	78	3.9	0	0	---	0.00	30.541 
01:00	9.0	9.0	9.0	78	3.6	0	0	---	0.00	30.548 
01:05	8.6	8.6	8.6	78	3.2	0	0	---	0.00	30.548 
01:10	8.4	8.4	8.4	78	3.0	0	0	---	0.00	30.548 
01:15	8.1	8.1	8.1	79	3.0	0	0	---	0.00	30.549 
01:20	7.9	7.9	7.9	79	2.8	0	0	---	0.00	30.549 
01:25	7.6	7.6	7.6	80	2.7	0	0	---	0.00	30.549 
01:30	7.4	7.4	7.4	80	2.5	0	0	---	0.00	30.551 
01:35	7.0	7.0	7.0	80	2.2	0	0	---	0.00	30.551 
01:40	6.9	6.9	6.9	80	2.1	0	0	---	0.00	30.551 
01:45	6.7	6.7	6.7	80	1.9	0	0	---	0.00	30.551 
01:50	6.3	6.3	6.3	80	1.5	0	0	---	0.00	30.551 
01:55	6.1	6.1	6.1	80	1.3	0	0	---	0.00	30.551 
02:00	5.8	5.8	5.8	80	1.0	0	0	---	0.00	30.552 
02:05	5.6	5.6	5.6	80	0.8	0	0	---	0.00	30.552 
02:10	5.4	5.4	5.4	80	0.6	0	0	---	0.00	30.552 
02:15	5.2	5.2	5.2	81	0.7	0	0	---	0.00	30.560 
02:20	5.0	5.0	5.0	81	0.5	0	0	---	0.00	30.560 
02:25	4.8	4.8	4.8	81	0.3	0	0	---	0.00	30.560 
02:30	4.7	4.7	4.7	81	0.2	0	0	---	0.00	30.566 
02:35	4.5	4.5	4.5	81	-0.0	0	0	---	0.00	30.566 
02:40	4.3	4.3	4.3	81	-0.2	0	0	---	0.00	30.566 
02:45	4.1	4.1	4.1	81	-0.4	0	0	---	0.00	30.567 
02:50	3.9	3.9	3.9	81	-0.6	0	0	---	0.00	30.567 
02:55	3.7	3.7	3.7	81	-0.8	0	0	---	0.00	30.567 
03:00	3.5	3.5	3.5	81	-1.0	0	0	---	0.00	30.567 
03:05	3.5	3.5	3.5	81	-1.0	0	0	---	0.00	30.567 
03:10	3.4	3.4	3.4	81	-1.1	0	0	---	0.00	30.567 
03:15	3.2	3.2	3.2	81	-1.3	0	0	---	0.00	30.571 
03:20	3.0	3.0	3.0	81	-1.5	0	0	---	0.00	30.571 
03:25	3.0	3.0	3.0	81	-1.5	0	0	---	0.00	30.571 
03:30	2.8	2.8	2.8	81	-1.7	0	0	---	0.00	30.572 
03:35	2.8	2.8	2.8	81	-1.7	0	0	---	0.00	30.572 
03:40	2.6	2.6	2.6	81	-1.9	0	0	---	0.00	30.572 
03:45	2.4	2.4	2.4	81	-2.1	0	0	---	0.00	30.573 
03:50	2.2	2.2	2.2	80	-2.5	0	0	---	0.00	30.573 
03:55	2.0	2.0	2.0	80	-2.7	0	0	---	0.00	30.573 
04:00	1.8	1.8	1.8	80	-2.9	0	0	---	0.00	30.577 
04:05	1.8	1.8	1.8	80	-2.9	0	0	---	0.00	30.577 
04:10	1.7	1.7	1.7	80	-3.0	0	0	---	0.00	30.577 
04:15	1.7	1.7	1.7	80	-3.0	0	0	---	0.00	30.579 
04:20	1.5	1.5	1.5	80	-3.2	0	0	---	0.00	30.579 
04:25	1.3	1.3	1.3	80	-3.4	0	0	---	0.00	30.579 
04:30	1.3	1.3	1.3	80	-3.4	0	0	---	0.00	30.577 
04:35	1.1	1.1	1.1	80	-3.6	0	0	---	0.00	30.577 
04:40	1.1	1.1	1.1	80	-3.6	0	0	---	0.00	30.577 
04:45	0.9	0.9	0.9	80	-3.8	0	0	---	0.00	30.576 
04:50	0.9	0.9	0.9	80	-3.8	0	0	---	0.00	30.576 
04:55	0.7	0.7	0.7	80	-4.0	0	0	---	0.00	30.576 
05:00	0.7	0.7	0.7	80	-4.0	0	0	---	0.00	30.575 
05:05	0.5	0.5	0.5	80	-4.2	0	0	---	0.00	30.575 
05:10	0.3	0.3	0.3	80	-4.4	0	0	---	0.00	30.575 
05:15	0.3	0.3	0.3	80	-4.4	0	0	---	0.00	30.576 
05:20	0.1	0.1	0.1	80	-4.6	0	0	---	0.00	30.576 
05:25	0.0	0.0	0.0	79	-4.9	0	0	---	0.00	30.576 
05:30	-0.2	-0.2	-0.2	79	-5.1	0	0	---	0.00	30.574 
05:35	-0.2	-0.2	-0.2	79	-5.1	0	0	---	0.00	30.574 
05:40	-0.4	-0.4	-0.4	79	-5.3	0	0	---	0.00	30.574 
05:45	-0.4	-0.4	-0.4	79	-5.3	0	0	---	0.00	30.574 
05:50	-0.4	-0.4	-0.4	79	-5.3	0	0	---	0.00	30.574 
05:55	-0.6	-0.6	-0.6	79	-5.5	0	0	---	0.00	30.574 
06:00	-0.8	-0.8	-0.8	79	-5.7	0	0	---	0.00	30.577 
06:05	-1.0	-1.0	-1.0	79	-5.9	0	0	---	0.00	30.577 
06:10	-1.2	-1.2	-1.2	79	-6.1	0	0	---	0.00	30.577 
06:15	-1.2	-1.2	-1.2	79	-6.1	0	0	---	0.00	30.577 
06:20	-1.0	-1.0	-1.0	79	-5.9	0	0	---	0.00	30.577 
06:25	-1.0	-1.0	-1.0	79	-5.9	0	0	---	0.00	30.577 
06:30	-0.8	-0.8	-0.8	79	-5.7	0	0	---	0.00	30.576 
06:35	-0.8	-0.8	-0.8	79	-5.7	0	0	---	0.00	30.576 
06:40	-1.0	-1.0	-1.0	79	-5.9	0	0	---	0.00	30.576 
06:45	-1.0	-1.0	-1.0	79	-5.9	0	0	---	0.00	30.573 
06:50	-1.0	-1.0	-1.0	79	-5.9	0	0	---	0.00	30.573 
06:55	-1.0	-1.0	-1.0	79	-5.9	0	0	---	0.00	30.573 
07:00	-1.0	-1.0	-1.0	79	-5.9	0	0	---	0.00	30.579 
07:05	-0.8	-0.8	-0.8	80	-5.5	0	0	---	0.00	30.579 
07:10	-0.8	-0.8	-0.8	80	-5.5	0	0	---	0.00	30.579 
07:15	-0.6	-0.6	-0.6	79	-5.5	0	0	---	0.00	30.582 
07:20	-0.6	-0.6	-0.6	80	-5.3	0	0	---	0.00	30.582 
07:25	-0.4	-0.4	-0.4	81	-4.8	0	0	---	0.00	30.582 
07:30	0.0	0.0	0.0	80	-4.7	0	0	---	0.00	30.580 
07:35	0.1	0.1	0.1	81	-4.3	0	0	---	0.00	30.580 
07:40	0.5	0.5	0.5	81	-3.9	0	0	---	0.00	30.580 
07:45	1.1	1.1	1.1	82	-3.1	0	1	248	0.00	30.581 
07:50	1.8	1.8	1.8	82	-2.4	0	1	248	0.00	30.581 
07:55	2.6	2.6	2.6	82	-1.6	0	1	248	0.00	30.581 
08:00	3.0	3.0	3.0	82	-1.2	0	1	248	0.00	30.583 
08:05	3.2	3.2	3.2	82	-1.0	0	1	248	0.00	30.583 
08:10	3.4	3.4	3.4	82	-0.8	0	1	248	0.00	30.583 
08:15	3.4	3.4	3.4	82	-0.8	0	1	248	0.00	30.589 
08:20	3.5	3.5	3.5	81	-1.0	0	1	248	0.00	30.589 
08:25	3.5	3.5	3.5	81	-1.0	0	1	248	0.00	30.589 
08:30	3.5	3.5	3.5	81	-1.0	0	1	248	0.00	30.583 
08:35	3.5	3.5	3.5	81	-1.0	0	1	248	0.00	30.583 
08:40	3.5	3.5	3.5	81	-1.0	0	0	---	0.00	30.583 
08:45	3.5	3.5	3.5	81	-1.0	0	1	248	0.00	30.589 
08:50	3.7	3.7	3.7	81	-0.8	0	1	248	0.00	30.589 
08:55	4.1	4.1	4.1	82	-0.1	0	1	248	0.00	30.589 
09:00	4.3	4.3	4.3	82	0.0	0	2	248	0.00	30.588 
09:05	4.5	4.5	4.5	82	0.2	1	3	225	0.00	30.588 
09:10	4.7	4.7	4.7	82	0.4	1	3	112	0.00	30.588 
09:15	4.8	4.8	4.8	82	0.5	0	2	112	0.00	30.589 
09:20	5.0	5.0	5.0	82	0.7	1	3	112	0.00	30.589 
09:25	5.2	5.2	5.2	82	0.9	1	4	90	0.00	30.589 
09:30	5.4	5.4	5.4	82	1.1	1	3	90	0.00	30.586 
09:35	5.6	5.6	5.6	82	1.3	1	4	90	0.00	30.586 
09:40	5.8	5.8	5.8	83	1.8	1	4	90	0.00	30.586 
09:45	6.1	6.1	6.1	82	1.8	1	4	90	0.00	30.588 
09:50	6.3	6.3	6.3	82	2.0	1	2	90	0.00	30.588 
09:55	6.3	6.3	6.3	82	2.0	0	2	90	0.00	30.588 
10:00	6.3	6.3	6.3	82	2.0	1	3	90	0.00	30.586 
10:05	6.5	6.5	6.5	82	2.2	2	3	90	0.00	30.586 
10:10	6.5	6.5	6.5	82	2.2	1	3	90	0.00	30.586 
10:15	6.5	6.5	6.5	82	2.2	1	3	90	0.00	30.582 
10:20	6.9	6.9	6.9	82	2.6	0	2	90	0.00	30.582 
10:25	7.0	7.0	7.0	82	2.7	1	2	90	0.00	30.582 
10:30	7.4	7.4	7.4	82	3.1	1	2	90	0.00	30.586 
10:35	7.6	7.6	7.6	82	3.3	1	3	90	0.00	30.586 
10:40	7.9	7.9	7.9	82	3.6	1	4	90	0.00	30.586 
10:45	7.9	7.9	7.9	82	3.6	1	3	90	0.00	30.571 
10:50	8.1	8.1	8.1	82	3.8	0	3	90	0.00	30.571 
10:55	8.1	8.1	8.1	81	3.5	2	6	90	0.00	30.571 
11:00	7.9	7.9	7.9	81	3.3	2	4	112	0.00	30.570 
11:05	8.1	8.1	8.1	81	3.5	2	5	90	0.00	30.570 
11:10	8.3	8.3	8.3	81	3.7	2	5	90	0.00	30.570 
11:15	8.6	8.6	8.6	81	4.0	2	5	90	0.00	30.554 
11:20	8.8	8.8	8.8	80	3.9	2	5	90	0.00	30.554 
11:25	8.8	8.8	8.8	80	3.9	2	4	112	0.00	30.554 
11:30	8.8	8.8	8.8	80	3.9	3	6	90	0.00	30.540 
11:35	9.2	9.2	9.2	80	4.3	2	5	90	0.00	30.540 
11:40	9.5	9.5	9.5	79	4.3	2	5	90	0.00	30.540 
11:45	9.7	9.7	9.7	79	4.5	1	3	90	0.00	30.527 
11:50	10.2	10.2	10.2	79	5.0	0	2	90	0.00	30.527 
11:55	10.5	10.5	10.5	79	5.3	1	5	90	0.00	30.527 
12:00	10.9	10.9	10.9	78	5.4	1	4	90	0.00	30.521 
12:05	10.9	10.9	10.9	78	5.4	1	2	90	0.00	30.521 
12:10	11.1	11.1	11.1	78	5.6	1	4	90	0.00	30.521 
12:15	11.2	11.2	11.2	78	5.7	0	2	90	0.00	30.511 
12:20	11.6	11.6	11.6	77	5.8	2	4	90	0.00	30.511 
12:25	11.9	11.9	11.9	77	6.1	3	6	112	0.00	30.511 
12:30	12.1	12.1	12.1	77	6.3	2	5	90	0.00	30.492 
12:35	12.3	12.3	12.3	77	6.5	1	4	90	0.00	30.492 
12:40	12.4	12.4	12.4	77	6.6	2	4	90	0.00	30.492 
12:45	12.6	12.6	12.6	77	6.8	2	5	90	0.00	30.484 
12:50	12.4	12.4	12.4	77	6.6	2	5	90	0.00	30.484 
12:55	12.4	12.4	12.4	77	6.6	2	4	90	0.00	30.484 
13:00	12.4	12.4	12.4	77	6.6	2	5	90	0.00	30.475 
13:05	12.4	12.4	12.4	76	6.3	2	4	90	0.00	30.475 
13:10	12.3	12.3	12.3	76	6.2	2	4	90	0.00	30.475 
13:15	12.3	12.3	12.3	77	6.5	2	5	90	0.00	30.464 
13:20	12.3	12.3	12.3	77	6.5	2	4	90	0.00	30.464 
13:25	12.6	12.6	12.6	77	6.8	1	3	90	0.00	30.464 
13:30	12.6	12.6	12.6	77	6.8	1	4	90	0.00	30.451 
13:35	12.8	12.8	12.8	77	7.0	1	4	90	0.00	30.451 
13:40	12.9	12.9	12.9	77	7.1	1	3	90	0.00	30.451 
13:45	12.9	12.9	12.9	77	7.1	2	4	90	0.00	30.450 
13:50	13.3	13.3	13.3	77	7.5	1	4	90	0.00	30.450 
13:55	13.5	13.5	13.5	77	7.7	1	3	90	0.00	30.450 
14:00	13.6	13.6	13.6	77	7.8	1	3	90	0.00	30.450 
14:05	13.8	13.8	13.8	77	7.9	2	4	90	0.00	30.450 
14:10	13.8	13.8	13.8	77	7.9	2	4	90	0.00	30.450 
14:15	13.8	13.8	13.8	77	7.9	1	3	90	0.00	30.453 
14:20	13.8	13.8	13.8	77	7.9	1	3	90	0.00	30.453 
14:25	13.8	13.8	13.8	77	7.9	1	4	90	0.00	30.453 
14:30	14.0	14.0	14.0	77	8.1	1	2	90	0.00	30.461 
14:35	14.1	14.1	14.1	78	8.5	1	2	90	0.00	30.461 
14:40	14.4	14.4	14.4	78	8.8	1	3	90	0.00	30.461 
14:45	14.6	14.6	14.6	78	9.0	1	3	90	0.00	30.459 
14:50	14.8	14.8	14.8	78	9.2	1	3	90	0.00	30.459 
14:55	14.8	14.8	14.8	79	9.5	1	3	90	0.00	30.459 
15:00	14.9	14.9	14.9	79	9.6	1	3	90	0.00	30.447 
15:05	14.8	14.8	14.8	78	9.2	1	3	90	0.00	30.447 
15:10	14.9	14.9	14.9	79	9.6	0	3	90	0.00	30.447 
15:15	14.8	14.8	14.8	79	9.5	2	4	90	0.00	30.450 
15:20	14.8	14.8	14.8	80	9.8	2	4	90	0.00	30.450 
15:25	14.6	14.6	14.6	80	9.6	2	5	90	0.00	30.450 
15:30	14.8	14.8	14.8	81	10.0	2	5	90	0.00	30.446 
15:35	14.9	14.9	14.9	81	10.1	0	3	90	0.00	30.446 
15:40	15.1	15.1	15.1	81	10.3	2	4	90	0.00	30.446 
15:45	15.1	15.1	15.1	81	10.3	1	3	90	0.00	30.439 
15:50	15.2	15.2	15.2	81	10.4	1	4	90	0.00	30.439 
15:55	15.2	15.2	15.2	81	10.4	0	2	90	0.00	30.439 
16:00	15.2	15.2	15.2	82	10.7	1	4	90	0.00	30.443 
16:05	15.2	15.2	15.2	82	10.7	1	3	90	0.00	30.443 
16:10	15.2	15.2	15.2	82	10.7	1	4	90	0.00	30.443 
16:15	15.4	15.4	15.4	83	11.2	1	4	90	0.00	30.435 
16:20	15.4	15.4	15.4	83	11.2	1	5	90	0.00	30.435 
16:25	15.6	15.6	15.6	83	11.4	1	4	90	0.00	30.435 
16:30	15.6	15.6	15.6	83	11.4	2	4	90	0.00	30.434 
16:35	15.7	15.7	15.7	84	11.7	1	4	90	0.00	30.434 
16:40	15.9	15.9	15.9	84	11.9	1	5	90	0.00	30.434 
16:45	16.1	16.1	16.1	84	12.1	1	4	90	0.00	30.430 
16:50	16.1	16.1	16.1	84	12.1	2	5	135	0.00	30.430 
16:55	16.1	16.1	16.1	84	12.1	1	3	135	0.00	30.430 
17:00	16.1	16.1	16.1	84	12.1	1	4	135	0.00	30.435 
17:05	16.1	16.1	16.1	84	12.1	1	3	135	0.00	30.435 
17:10	16.2	16.2	16.2	84	12.2	1	3	135	0.00	30.435 
17:15	16.2	16.2	16.2	85	12.5	1	3	135	0.00	30.440 
17:20	16.2	16.2	16.2	85	12.5	0	2	135	0.00	30.440 
17:25	16.2	16.2	16.2	85	12.5	1	4	135	0.00	30.440 
17:30	16.2	16.2	16.2	85	12.5	1	2	90	0.00	30.437 
17:35	16.2	16.2	16.2	85	12.5	1	3	90	0.00	30.437 
17:40	16.4	16.4	16.4	86	13.0	1	3	90	0.00	30.437 
17:45	16.4	16.4	16.4	86	13.0	1	4	90	0.00	30.434 
17:50	16.5	16.5	16.5	86	13.1	1	3	90	0.00	30.434 
17:55	16.5	16.5	16.5	86	13.1	2	4	90	0.00	30.434 
18:00	16.7	16.7	16.7	86	13.3	2	4	90	0.00	30.433 
18:05	16.7	16.7	16.7	86	13.3	2	4	90	0.00	30.433 
18:10	16.9	16.9	16.9	86	13.5	1	4	90	0.00	30.433 
18:15	16.9	16.9	16.9	87	13.7	2	3	90	0.00	30.420 
18:20	16.9	16.9	16.9	87	13.7	2	5	90	0.00	30.420 
18:25	16.9	16.9	16.9	87	13.7	2	6	90	0.00	30.420 
18:30	16.9	16.9	16.9	87	13.7	3	6	90	0.00	30.403 
18:35	17.0	17.0	17.0	87	13.8	3	7	90	0.00	30.403 
18:40	17.0	17.0	17.0	87	13.8	2	5	90	0.00	30.403 
18:45	17.2	17.2	17.2	87	14.0	1	4	112	0.00	30.394 
18:50	17.2	17.2	17.2	87	14.0	2	3	112	0.00	30.394 
18:55	17.2	17.2	17.2	87	14.0	2	4	112	0.00	30.394 
19:00	17.3	17.3	17.3	87	14.1	1	4	90	0.00	30.399 
19:05	17.3	17.3	17.3	87	14.1	1	3	90	0.00	30.399 
19:10	17.5	17.5	17.5	87	14.3	1	4	90	0.00	30.399 
19:15	17.7	17.7	17.7	87	14.5	1	3	90	0.00	30.397 
19:20	17.7	17.7	17.7	87	14.5	0	2	90	0.00	30.397 
19:25	17.8	17.8	17.8	87	14.6	1	3	90	0.00	30.397 
19:30	18.0	18.0	18.0	87	14.8	1	3	90	0.00	30.398 
19:35	18.0	18.0	18.0	88	15.1	1	2	90	0.00	30.398 
19:40	18.1	18.1	18.1	88	15.2	0	1	90	0.00	30.398 
19:45	18.3	18.3	18.3	88	15.4	1	3	90	0.00	30.399 
19:50	18.4	18.4	18.4	88	15.5	0	2	90	0.00	30.399 
19:55	18.4	18.4	18.4	88	15.5	1	2	90	0.00	30.399 
20:00	18.6	18.6	18.6	88	15.6	1	3	90	0.00	30.394 
20:05	18.6	18.6	18.6	88	15.6	1	3	90	0.00	30.394 
20:10	18.8	18.8	18.8	88	15.8	1	2	90	0.00	30.394 
20:15	18.9	18.9	18.9	88	15.9	1	3	90	0.00	30.383 
20:20	18.9	18.9	18.9	88	15.9	1	2	90	0.00	30.383 
20:25	19.1	19.1	19.1	88	16.1	1	3	90	0.00	30.383 
20:30	19.1	19.1	19.1	88	16.1	1	4	90	0.00	30.380 
20:35	19.2	19.2	19.2	88	16.2	1	3	90	0.00	30.380 
20:40	19.4	19.4	19.4	88	16.4	1	2	90	0.00	30.380 
20:45	19.4	19.4	19.4	88	16.4	1	3	90	0.00	30.366 
20:50	19.5	19.5	19.5	88	16.5	1	2	90	0.00	30.366 
20:55	19.5	19.5	19.5	88	16.5	1	3	90	0.00	30.366 
21:00	19.7	19.7	19.7	89	17.0	1	2	90	0.00	30.360 
21:05	19.7	19.7	19.7	89	17.0	1	3	90	0.00	30.360 
21:10	19.7	19.7	19.7	89	17.0	1	2	90	0.00	30.360 
21:15	19.9	19.9	19.9	89	17.2	1	2	90	0.00	30.354 
21:20	20.0	20.0	20.0	89	17.3	0	2	90	0.00	30.354 
21:25	20.2	20.2	20.2	89	17.5	0	1	90	0.00	30.354 
21:30	20.3	20.3	20.3	89	17.6	0	2	90	0.00	30.349 
21:35	20.5	20.5	20.5	89	17.8	0	2	90	0.00	30.349 
21:40	20.6	20.6	20.6	89	17.9	0	2	90	0.00	30.349 
21:45	21.0	21.0	21.0	90	18.5	1	2	90	0.00	30.344 
21:50	21.1	21.1	21.1	90	18.6	1	3	90	0.00	30.344 
21:55	21.3	21.3	21.3	90	18.8	1	2	90	0.00	30.344 
22:00	21.3	21.3	21.3	90	18.8	1	2	90	0.00	30.335 
22:05	21.4	21.4	21.4	90	18.9	1	2	90	0.00	30.335 
22:10	21.4	21.4	21.4	90	18.9	1	2	90	0.00	30.335 
22:15	21.6	21.6	21.6	90	19.1	0	2	90	0.00	30.325 
22:20	21.8	21.8	21.8	90	19.3	0	2	90	0.00	30.325 
22:25	21.9	21.9	21.9	90	19.4	0	2	90	0.00	30.325 
22:30	22.1	22.1	22.1	90	19.6	0	2	90	0.00	30.322 
22:35	22.2	22.2	22.2	90	19.7	0	1	90	0.00	30.322 
22:40	22.4	22.4	22.4	90	19.9	0	1	90	0.00	30.322 
22:45	22.4	22.4	22.4	91	20.2	0	1	90	0.00	30.318 
22:50	22.5	22.5	22.5	91	20.3	0	1	90	0.00	30.318 
22:55	22.7	22.7	22.7	91	20.5	0	1	90	0.00	30.318 
23:00	22.9	22.9	22.9	91	20.7	0	2	90	0.00	30.312 
23:05	23.0	23.0	23.0	91	20.8	0	1	90	0.00	30.312 
23:10	23.0	23.0	23.0	91	20.8	0	2	90	0.00	30.312 
23:15	23.2	23.2	23.2	91	21.0	0	1	90	0.00	30.303 
23:20	23.2	23.2	23.2	91	21.0	0	1	90	0.00	30.303 
23:25	23.3	23.3	23.3	91	21.1	0	1	90	0.00	30.303 
23:30	23.5	23.5	23.5	91	21.3	0	0	---	0.00	30.289 
23:35	23.6	23.6	23.6	91	21.4	0	0	---	0.00	30.289 
23:40	23.8	23.8	23.8	91	21.6	0	1	90	0.00	30.289 
23:45	23.9	23.9	23.9	91	21.7	0	1	90	0.00	30.281 
23:50	24.1	24.1	24.1	92	22.1	0	1	90	0.00	30.281 
23:55	24.2	24.2	24.2	92	22.2	0	1	90	0.00	30.281 

CoCoRaHS
IN-AL-39
A2 Web Hosting
Creative Commons License
GoDaddy
search engine by freefind advanced

loaded 2018-11-18 12:19:02 • last modified 2010-11-18 10:43:29
Privacy PolicyDisclaimer
• wx.awcolley.com is powered by PmWiki v.2002016 •
• all content (unless otherwise noted) © 2018 A W Colley